createdAt,value
2017-09-24T00:00:07.644Z,13.70
2017-09-24T00:02:35.085Z,13.70
2017-09-24T00:05:02.571Z,13.80
2017-09-24T00:07:30.024Z,13.70
2017-09-24T00:09:57.486Z,13.70
2017-09-24T00:12:24.935Z,13.70
2017-09-24T00:14:52.414Z,13.70
2017-09-24T00:17:19.866Z,13.80
2017-09-24T00:19:47.349Z,13.80
2017-09-24T00:22:14.802Z,13.90
2017-09-24T00:24:42.266Z,13.90
2017-09-24T00:27:09.714Z,13.90
2017-09-24T00:29:37.173Z,13.90
2017-09-24T00:32:05.393Z,14.00
2017-09-24T00:34:32.855Z,14.00
2017-09-24T00:37:00.308Z,14.00
2017-09-24T00:39:27.755Z,14.00
2017-09-24T00:41:55.215Z,14.00
2017-09-24T00:44:22.666Z,14.10
2017-09-24T00:46:50.120Z,14.10
2017-09-24T00:49:17.581Z,14.10
2017-09-24T00:51:45.037Z,14.10
2017-09-24T00:54:12.502Z,14.10
2017-09-24T00:56:39.974Z,14.10
2017-09-24T00:59:07.421Z,14.10
2017-09-24T01:01:34.882Z,14.00
2017-09-24T01:04:02.339Z,14.00
2017-09-24T01:06:29.790Z,14.00
2017-09-24T01:08:57.251Z,14.00
2017-09-24T01:11:24.701Z,14.00
2017-09-24T01:13:52.151Z,14.10
2017-09-24T01:16:20.365Z,14.10
2017-09-24T01:18:47.818Z,14.10
2017-09-24T01:21:15.270Z,14.20
2017-09-24T01:23:42.713Z,14.20
2017-09-24T01:26:10.486Z,14.20
2017-09-24T01:28:37.942Z,14.30
2017-09-24T01:31:05.400Z,14.30
2017-09-24T01:33:32.869Z,14.20
2017-09-24T01:36:00.324Z,14.20
2017-09-24T01:38:27.767Z,14.10
2017-09-24T01:40:55.221Z,14.10
2017-09-24T01:43:22.691Z,14.20
2017-09-24T01:45:50.142Z,14.20
2017-09-24T01:48:17.601Z,14.20
2017-09-24T01:50:45.047Z,14.20
2017-09-24T01:53:12.504Z,14.20
2017-09-24T01:55:39.955Z,14.10
2017-09-24T01:58:07.411Z,14.10
2017-09-24T02:00:34.870Z,14.20
2017-09-24T02:03:02.326Z,14.10
2017-09-24T02:05:29.778Z,14.20
2017-09-24T02:07:57.242Z,14.20
2017-09-24T02:10:24.691Z,14.20
2017-09-24T02:12:52.146Z,14.20
2017-09-24T02:15:19.594Z,14.20
2017-09-24T02:17:47.046Z,14.20
2017-09-24T02:20:14.503Z,14.20
2017-09-24T02:22:41.950Z,14.10
2017-09-24T02:25:09.410Z,14.00
2017-09-24T02:27:36.918Z,14.00
2017-09-24T02:30:04.354Z,14.00
2017-09-24T02:32:31.806Z,14.10
2017-09-24T02:34:59.268Z,14.20
2017-09-24T02:37:26.719Z,14.20
2017-09-24T02:39:54.172Z,14.20
2017-09-24T02:42:21.646Z,14.20
2017-09-24T02:44:49.098Z,14.10
2017-09-24T02:47:16.550Z,14.10
2017-09-24T02:49:44.002Z,14.00
2017-09-24T02:52:11.458Z,14.10
2017-09-24T02:54:38.908Z,14.10
2017-09-24T02:57:06.374Z,14.10
2017-09-24T02:59:33.831Z,14.10
2017-09-24T03:02:01.299Z,14.10
2017-09-24T03:04:28.743Z,14.10
2017-09-24T03:06:56.210Z,14.10
2017-09-24T03:09:23.662Z,14.10
2017-09-24T03:11:51.114Z,14.10
2017-09-24T03:14:18.573Z,14.10
2017-09-24T03:16:46.048Z,14.10
2017-09-24T03:19:13.523Z,14.20
2017-09-24T03:21:41.754Z,14.20
2017-09-24T03:24:09.214Z,14.20
2017-09-24T03:26:36.703Z,14.20
2017-09-24T03:29:04.941Z,14.30
2017-09-24T03:31:32.414Z,14.30
2017-09-24T03:33:59.885Z,14.20
2017-09-24T03:36:27.359Z,14.20
2017-09-24T03:38:54.837Z,14.10
2017-09-24T03:41:22.287Z,14.10
2017-09-24T03:43:49.738Z,14.10
2017-09-24T03:46:17.185Z,14.10
2017-09-24T03:48:45.405Z,14.10
2017-09-24T03:51:12.865Z,14.10
2017-09-24T03:53:40.325Z,14.10
2017-09-24T03:56:07.785Z,14.20
2017-09-24T03:58:35.250Z,14.20
2017-09-24T04:01:02.742Z,14.20
2017-09-24T04:03:30.980Z,14.20
2017-09-24T04:05:58.475Z,14.20
2017-09-24T04:08:25.929Z,14.20
2017-09-24T04:10:53.406Z,14.20
2017-09-24T04:13:20.986Z,14.10
2017-09-24T04:15:48.452Z,14.20
2017-09-24T04:18:15.945Z,14.20
2017-09-24T04:20:43.413Z,14.20
2017-09-24T04:23:10.875Z,14.20
2017-09-24T04:25:39.120Z,14.30
2017-09-24T04:28:06.569Z,14.20
2017-09-24T04:30:34.011Z,14.30
2017-09-24T04:33:01.478Z,14.40
2017-09-24T04:35:28.979Z,14.40
2017-09-24T04:37:57.210Z,14.50
2017-09-24T04:40:24.688Z,14.40
2017-09-24T04:42:52.162Z,14.50
2017-09-24T04:45:20.390Z,14.50
2017-09-24T04:47:47.861Z,14.50
2017-09-24T04:50:15.314Z,14.50
2017-09-24T04:52:42.787Z,14.50
2017-09-24T04:55:10.238Z,14.50
2017-09-24T04:57:37.693Z,14.50
2017-09-24T05:00:05.173Z,14.50
2017-09-24T05:02:32.630Z,14.50
2017-09-24T05:05:00.100Z,14.60
2017-09-24T05:07:28.369Z,14.60
2017-09-24T05:09:56.201Z,14.60
2017-09-24T05:12:23.673Z,14.60
2017-09-24T05:14:51.156Z,14.60
2017-09-24T05:17:18.627Z,14.60
2017-09-24T05:19:46.078Z,14.70
2017-09-24T05:22:14.298Z,14.60
2017-09-24T05:24:41.749Z,14.60
2017-09-24T05:27:09.580Z,14.50
2017-09-24T05:29:37.031Z,14.50
2017-09-24T05:32:04.501Z,14.40
2017-09-24T05:34:31.955Z,14.30
2017-09-24T05:36:59.414Z,14.20
2017-09-24T05:39:26.938Z,14.20
2017-09-24T05:41:54.395Z,14.20
2017-09-24T05:44:21.861Z,14.10
2017-09-24T05:46:50.095Z,14.20
2017-09-24T05:49:17.603Z,14.20
2017-09-24T05:51:45.071Z,14.20
2017-09-24T05:54:12.526Z,14.30
2017-09-24T05:56:39.986Z,14.20
2017-09-24T05:59:07.450Z,14.30
2017-09-24T06:01:34.902Z,14.30
2017-09-24T06:04:02.445Z,14.30
2017-09-24T06:06:30.502Z,14.30
2017-09-24T06:08:57.969Z,14.30
2017-09-24T06:11:25.448Z,14.30
2017-09-24T06:13:52.912Z,14.40
2017-09-24T06:16:20.814Z,14.30
2017-09-24T06:18:48.277Z,14.30
2017-09-24T06:21:20.451Z,14.30
2017-09-24T06:23:47.936Z,14.40
2017-09-24T06:26:15.403Z,14.40
2017-09-24T06:28:42.868Z,14.40
2017-09-24T06:31:10.311Z,14.40
2017-09-24T06:33:37.765Z,14.50
2017-09-24T06:36:05.226Z,14.50
2017-09-24T06:38:32.763Z,14.50
2017-09-24T06:41:00.231Z,14.60
2017-09-24T06:43:28.459Z,14.60
2017-09-24T06:45:56.319Z,14.60
2017-09-24T06:48:36.272Z,14.60
2017-09-24T06:51:03.770Z,14.60
2017-09-24T06:53:31.230Z,14.60
2017-09-24T06:55:59.707Z,14.60
2017-09-24T06:58:27.966Z,14.70
2017-09-24T07:00:55.418Z,14.60
2017-09-24T07:03:22.924Z,14.70
2017-09-24T07:05:50.377Z,14.70
2017-09-24T07:08:17.887Z,14.70
2017-09-24T07:10:45.350Z,14.70
2017-09-24T07:13:12.835Z,14.80
2017-09-24T07:15:41.062Z,14.80
2017-09-24T07:18:08.538Z,14.80
2017-09-24T07:20:36.042Z,14.70
2017-09-24T07:23:03.494Z,14.90
2017-09-24T07:25:30.942Z,14.90
2017-09-24T07:27:59.210Z,14.90
2017-09-24T07:30:27.444Z,14.90
2017-09-24T07:32:55.094Z,14.90
2017-09-24T07:35:23.270Z,15.10
2017-09-24T07:37:50.743Z,15.20
2017-09-24T07:40:18.235Z,15.20
2017-09-24T07:42:45.711Z,15.20
2017-09-24T07:45:13.166Z,15.30
2017-09-24T07:47:40.618Z,15.30
2017-09-24T07:50:08.091Z,15.30
2017-09-24T07:52:35.577Z,15.30
2017-09-24T07:55:03.042Z,15.30
2017-09-24T07:57:30.504Z,15.30
2017-09-24T07:59:57.993Z,15.50
2017-09-24T08:02:26.232Z,15.60
2017-09-24T08:04:53.730Z,15.50
2017-09-24T08:07:21.999Z,15.70
2017-09-24T08:09:50.279Z,15.70
2017-09-24T08:12:17.747Z,15.70
2017-09-24T08:14:45.832Z,15.80
2017-09-24T08:17:13.288Z,15.90
2017-09-24T08:19:40.776Z,15.90
2017-09-24T08:22:08.250Z,15.90
2017-09-24T08:24:35.799Z,15.90
2017-09-24T08:27:03.298Z,15.90
2017-09-24T08:29:30.763Z,15.80
2017-09-24T08:31:58.218Z,15.90
2017-09-24T08:34:25.782Z,16.00
2017-09-24T08:36:53.275Z,16.10
2017-09-24T08:39:20.742Z,16.10
2017-09-24T08:41:48.251Z,16.10
2017-09-24T08:44:15.714Z,16.10
2017-09-24T08:46:43.204Z,16.20
2017-09-24T08:49:10.776Z,16.20
2017-09-24T08:51:38.254Z,16.30
2017-09-24T08:54:05.747Z,16.30
2017-09-24T08:56:33.286Z,16.20
2017-09-24T08:59:01.563Z,16.10
2017-09-24T09:01:29.098Z,16.00
2017-09-24T09:03:56.582Z,16.10
2017-09-24T09:06:24.887Z,16.20
2017-09-24T09:08:52.386Z,16.20
2017-09-24T09:11:19.892Z,16.10
2017-09-24T09:13:47.441Z,16.10
2017-09-24T09:16:14.971Z,16.10
2017-09-24T09:18:42.438Z,16.10
2017-09-24T09:21:10.691Z,15.90
2017-09-24T09:23:38.174Z,15.90
2017-09-24T09:26:05.662Z,15.90
2017-09-24T09:28:33.150Z,15.80
2017-09-24T09:31:00.629Z,15.80
2017-09-24T09:33:28.104Z,15.90
2017-09-24T09:35:56.369Z,16.00
2017-09-24T09:38:25.030Z,16.00
2017-09-24T09:40:52.536Z,16.00
2017-09-24T09:43:31.674Z,16.00
2017-09-24T09:46:00.132Z,15.90
2017-09-24T09:48:27.593Z,16.10
2017-09-24T09:50:55.848Z,16.20
2017-09-24T09:53:23.309Z,16.20
2017-09-24T09:55:50.793Z,16.30
2017-09-24T09:58:18.266Z,16.30
2017-09-24T10:00:45.799Z,16.40
2017-09-24T10:03:14.025Z,16.30
2017-09-24T10:05:41.491Z,16.30
2017-09-24T10:08:21.635Z,16.30
2017-09-24T10:10:49.101Z,16.30
2017-09-24T10:13:16.549Z,16.40
2017-09-24T10:15:44.031Z,16.40
2017-09-24T10:18:11.502Z,16.40
2017-09-24T10:20:39.754Z,16.50
2017-09-24T10:23:07.230Z,16.50
2017-09-24T10:25:34.718Z,16.40
2017-09-24T10:28:02.196Z,16.50
2017-09-24T10:30:41.355Z,16.50
2017-09-24T10:33:08.826Z,16.60
2017-09-24T10:35:36.517Z,16.70
2017-09-24T10:38:03.975Z,16.60
2017-09-24T10:40:31.491Z,16.60
2017-09-24T10:42:58.987Z,16.70
2017-09-24T10:45:26.466Z,16.80
2017-09-24T10:47:53.957Z,16.80
2017-09-24T10:50:21.404Z,16.80
2017-09-24T10:52:48.873Z,16.80
2017-09-24T10:55:16.354Z,17.00
2017-09-24T10:57:43.834Z,17.00
2017-09-24T11:00:11.464Z,17.10
2017-09-24T11:02:39.014Z,17.10
2017-09-24T11:05:06.567Z,17.20
2017-09-24T11:07:34.344Z,17.20
2017-09-24T11:10:01.887Z,17.20
2017-09-24T11:12:29.383Z,17.20
2017-09-24T11:14:56.952Z,17.30
2017-09-24T11:17:24.467Z,17.30
2017-09-24T11:19:52.707Z,17.50
2017-09-24T11:22:20.196Z,17.50
2017-09-24T11:24:47.698Z,17.50
2017-09-24T11:27:15.166Z,17.50
2017-09-24T11:29:42.669Z,17.60
2017-09-24T11:32:10.150Z,17.60
2017-09-24T11:34:37.640Z,17.60
2017-09-24T11:37:05.151Z,17.40
2017-09-24T11:39:32.649Z,17.50
2017-09-24T11:42:00.201Z,17.50
2017-09-24T11:44:27.671Z,17.40
2017-09-24T11:46:55.126Z,17.40
2017-09-24T11:49:22.659Z,17.40
2017-09-24T11:51:50.913Z,17.40
2017-09-24T11:54:18.426Z,17.40
2017-09-24T11:56:45.936Z,17.50
2017-09-24T11:59:13.417Z,17.40
2017-09-24T12:01:41.695Z,17.60
2017-09-24T12:04:09.276Z,17.60
2017-09-24T12:06:36.731Z,17.70
2017-09-24T12:09:04.227Z,17.70
2017-09-24T12:11:31.727Z,17.60
2017-09-24T12:13:59.304Z,17.70
2017-09-24T12:16:26.810Z,17.60
2017-09-24T12:18:54.315Z,17.60
2017-09-24T12:21:21.780Z,17.50
2017-09-24T12:23:49.287Z,17.40
2017-09-24T12:26:16.789Z,17.40
2017-09-24T12:28:44.329Z,17.50
2017-09-24T12:31:11.806Z,17.50
2017-09-24T12:33:39.336Z,17.60
2017-09-24T12:36:07.645Z,17.70
2017-09-24T12:38:35.198Z,17.70
2017-09-24T12:41:02.830Z,17.60
2017-09-24T12:43:30.399Z,17.60
2017-09-24T12:45:58.017Z,17.60
2017-09-24T12:48:25.635Z,17.70
2017-09-24T12:50:53.277Z,17.70
2017-09-24T12:53:20.881Z,17.80
2017-09-24T12:55:48.534Z,17.90
2017-09-24T12:58:16.192Z,17.90
2017-09-24T13:00:43.767Z,18.00
2017-09-24T13:03:11.290Z,18.10
2017-09-24T13:05:38.863Z,18.20
2017-09-24T13:08:06.464Z,18.10
2017-09-24T13:10:33.978Z,18.10
2017-09-24T13:13:01.705Z,18.30
2017-09-24T13:15:29.738Z,18.50
2017-09-24T13:17:57.267Z,18.60
2017-09-24T13:20:24.758Z,18.50
2017-09-24T13:22:52.381Z,18.50
2017-09-24T13:25:19.950Z,18.50
2017-09-24T13:27:47.517Z,18.40
2017-09-24T13:30:15.166Z,18.20
2017-09-24T13:32:42.811Z,18.10
2017-09-24T13:35:10.500Z,18.10
2017-09-24T13:37:38.217Z,18.20
2017-09-24T13:40:05.823Z,18.20
2017-09-24T13:42:33.313Z,18.20
2017-09-24T13:45:00.820Z,18.10
2017-09-24T13:47:29.083Z,18.20
2017-09-24T13:49:57.367Z,18.30
2017-09-24T13:52:24.911Z,18.30
2017-09-24T13:54:52.382Z,18.40
2017-09-24T13:57:20.637Z,18.70
2017-09-24T13:59:48.121Z,18.70
2017-09-24T14:02:16.339Z,18.90
2017-09-24T14:04:43.837Z,18.80
2017-09-24T14:07:11.313Z,18.90
2017-09-24T14:09:39.602Z,18.80
2017-09-24T14:12:07.099Z,18.80
2017-09-24T14:14:34.588Z,18.80
2017-09-24T14:17:02.072Z,18.90
2017-09-24T14:19:29.543Z,18.90
2017-09-24T14:21:57.047Z,19.00
2017-09-24T14:24:24.527Z,18.90
2017-09-24T14:26:52.022Z,18.90
2017-09-24T14:29:19.514Z,18.90
2017-09-24T14:31:46.987Z,19.00
2017-09-24T14:34:14.552Z,18.90
2017-09-24T14:36:42.042Z,19.00
2017-09-24T14:39:09.529Z,19.10
2017-09-24T14:41:37.002Z,19.20
2017-09-24T14:44:04.482Z,19.20
2017-09-24T14:46:32.122Z,19.10
2017-09-24T14:48:59.651Z,19.00
2017-09-24T14:51:27.121Z,18.80
2017-09-24T14:53:54.596Z,18.80
2017-09-24T14:56:22.070Z,18.80
2017-09-24T14:58:50.319Z,18.70
2017-09-24T15:01:17.806Z,18.70
2017-09-24T15:03:46.097Z,18.60
2017-09-24T15:06:13.556Z,18.60
2017-09-24T15:08:41.022Z,18.50
2017-09-24T15:11:08.505Z,18.40
2017-09-24T15:13:36.140Z,18.40
2017-09-24T15:16:03.659Z,18.40
2017-09-24T15:18:31.181Z,18.30
2017-09-24T15:20:58.697Z,18.40
2017-09-24T15:23:26.155Z,18.50
2017-09-24T15:25:54.420Z,18.50
2017-09-24T15:28:21.897Z,18.50
2017-09-24T15:30:49.396Z,18.50
2017-09-24T15:33:16.906Z,18.50
2017-09-24T15:35:44.426Z,18.50
2017-09-24T15:38:11.928Z,18.40
2017-09-24T15:40:39.419Z,18.50
2017-09-24T15:43:07.082Z,18.60
2017-09-24T15:45:34.551Z,18.70
2017-09-24T15:48:02.063Z,18.60
2017-09-24T15:50:30.312Z,18.40
2017-09-24T15:52:57.804Z,18.40
2017-09-24T15:55:25.282Z,18.40
2017-09-24T15:57:52.751Z,18.40
2017-09-24T16:00:20.227Z,18.20
2017-09-24T16:02:47.690Z,18.20
2017-09-24T16:05:15.161Z,18.00
2017-09-24T16:07:43.406Z,17.80
2017-09-24T16:10:10.890Z,17.80
2017-09-24T16:12:38.372Z,17.70
2017-09-24T16:15:05.869Z,17.60
2017-09-24T16:17:33.381Z,17.60
2017-09-24T16:20:00.884Z,17.50
2017-09-24T16:22:28.355Z,17.40
2017-09-24T16:24:55.827Z,17.50
2017-09-24T16:27:23.298Z,17.40
2017-09-24T16:29:51.538Z,17.40
2017-09-24T16:32:19.020Z,17.40
2017-09-24T16:34:46.514Z,17.20
2017-09-24T16:37:13.982Z,17.30
2017-09-24T16:39:41.482Z,17.30
2017-09-24T16:42:08.973Z,17.40
2017-09-24T16:44:36.455Z,17.50
2017-09-24T16:47:03.922Z,17.60
2017-09-24T16:49:31.426Z,17.60
2017-09-24T16:51:59.677Z,17.40
2017-09-24T16:54:27.157Z,17.40
2017-09-24T16:56:54.643Z,17.40
2017-09-24T16:59:22.106Z,17.40
2017-09-24T17:01:49.608Z,17.30
2017-09-24T17:04:17.102Z,17.30
2017-09-24T17:06:45.366Z,17.20
2017-09-24T17:09:12.902Z,17.20
2017-09-24T17:11:40.410Z,17.10
2017-09-24T17:14:07.867Z,17.00
2017-09-24T17:16:35.481Z,16.90
2017-09-24T17:19:02.975Z,16.80
2017-09-24T17:21:30.446Z,16.70
2017-09-24T17:23:57.975Z,16.70
2017-09-24T17:26:25.464Z,16.70
2017-09-24T17:28:52.963Z,16.60
2017-09-24T17:31:20.446Z,16.60
2017-09-24T17:33:47.917Z,16.60
2017-09-24T17:36:15.458Z,16.60
2017-09-24T17:38:42.988Z,16.50
2017-09-24T17:41:10.487Z,16.50
2017-09-24T17:43:37.974Z,16.40
2017-09-24T17:46:05.503Z,16.40
2017-09-24T17:48:32.970Z,16.30
2017-09-24T17:51:00.716Z,16.30
2017-09-24T17:53:28.194Z,16.20
2017-09-24T17:55:55.746Z,16.20
2017-09-24T17:58:23.227Z,16.10
2017-09-24T18:00:50.766Z,16.10
2017-09-24T18:03:19.027Z,16.10
2017-09-24T18:05:46.495Z,16.10
2017-09-24T18:08:13.942Z,16.10
2017-09-24T18:10:42.233Z,16.00
2017-09-24T18:13:09.690Z,16.00
2017-09-24T18:15:37.164Z,16.00
2017-09-24T18:18:04.685Z,15.90
2017-09-24T18:20:32.165Z,15.90
2017-09-24T18:22:59.635Z,15.90
2017-09-24T18:25:28.850Z,15.80
2017-09-24T18:27:56.459Z,15.70
2017-09-24T18:30:24.026Z,15.60
2017-09-24T18:32:51.490Z,15.70
2017-09-24T18:35:19.745Z,15.60
2017-09-24T18:37:47.206Z,15.60
2017-09-24T18:40:14.660Z,15.50
2017-09-24T18:42:42.124Z,15.50
2017-09-24T18:45:09.602Z,15.40
2017-09-24T18:47:37.269Z,15.40
2017-09-24T18:50:04.985Z,15.40
2017-09-24T18:52:32.464Z,15.30
2017-09-24T18:54:59.922Z,15.30
2017-09-24T18:57:27.400Z,15.30
2017-09-24T19:00:01.622Z,15.30
2017-09-24T19:02:29.162Z,15.20
2017-09-24T19:04:56.706Z,15.20
2017-09-24T19:07:24.954Z,15.10
2017-09-24T19:09:52.443Z,15.10
2017-09-24T19:12:19.903Z,15.20
2017-09-24T19:14:47.661Z,15.10
2017-09-24T19:17:15.141Z,15.10
2017-09-24T19:19:43.385Z,15.10
2017-09-24T19:22:10.911Z,15.10
2017-09-24T19:24:38.545Z,15.00
2017-09-24T19:27:06.027Z,14.90
2017-09-24T19:29:33.550Z,14.90
2017-09-24T19:32:01.415Z,15.00
2017-09-24T19:34:28.935Z,15.00
2017-09-24T19:36:56.411Z,14.90
2017-09-24T19:39:23.902Z,14.90
2017-09-24T19:41:51.354Z,14.90
2017-09-24T19:44:19.027Z,14.90
2017-09-24T19:46:46.676Z,14.90
2017-09-24T19:49:14.406Z,14.90
2017-09-24T19:51:41.871Z,14.90
2017-09-24T19:54:09.317Z,14.90
2017-09-24T19:56:36.794Z,14.90
2017-09-24T19:59:04.246Z,14.80
2017-09-24T20:01:32.526Z,14.80
2017-09-24T20:04:00.787Z,14.70
2017-09-24T20:06:28.263Z,14.70
2017-09-24T20:08:55.768Z,14.70
2017-09-24T20:11:23.270Z,14.80
2017-09-24T20:13:51.518Z,14.70
2017-09-24T20:16:19.100Z,14.70
2017-09-24T20:18:47.651Z,14.50
2017-09-24T20:21:15.164Z,14.50
2017-09-24T20:23:42.683Z,14.50
2017-09-24T20:26:10.175Z,14.50
2017-09-24T20:28:37.643Z,14.50
2017-09-24T20:31:05.545Z,14.50
2017-09-24T20:33:33.108Z,14.50
2017-09-24T20:36:00.591Z,14.50
2017-09-24T20:38:28.538Z,14.40
2017-09-24T20:40:56.058Z,14.50
2017-09-24T20:43:23.511Z,14.40
2017-09-24T20:45:51.066Z,14.40
2017-09-24T20:48:18.518Z,14.40
2017-09-24T20:50:46.144Z,14.40
2017-09-24T20:53:13.607Z,14.40
2017-09-24T20:55:43.138Z,14.40
2017-09-24T20:58:10.602Z,14.40
2017-09-24T21:00:38.102Z,14.30
2017-09-24T21:03:07.754Z,14.40
2017-09-24T21:05:35.285Z,14.30
2017-09-24T21:08:02.766Z,14.40
2017-09-24T21:10:30.239Z,14.40
2017-09-24T21:12:57.738Z,14.40
2017-09-24T21:15:25.241Z,14.40
2017-09-24T21:17:58.662Z,14.40
2017-09-24T21:20:26.315Z,14.40
2017-09-24T21:22:53.854Z,14.40
2017-09-24T21:25:22.099Z,14.40
2017-09-24T21:27:49.583Z,14.30
2017-09-24T21:30:17.733Z,14.40
2017-09-24T21:32:45.218Z,14.40
2017-09-24T21:35:12.682Z,14.40
2017-09-24T21:37:40.207Z,14.30
2017-09-24T21:40:07.849Z,14.40
2017-09-24T21:42:35.612Z,14.40
2017-09-24T21:45:03.118Z,14.40
2017-09-24T21:47:30.619Z,14.30
2017-09-24T21:49:58.120Z,14.30
2017-09-24T21:52:25.601Z,14.20
2017-09-24T21:54:53.129Z,14.20
2017-09-24T21:57:20.600Z,14.20
2017-09-24T21:59:48.827Z,14.10
2017-09-24T22:02:16.546Z,14.10
2017-09-24T22:04:44.427Z,14.10
2017-09-24T22:07:11.878Z,14.10
2017-09-24T22:09:39.339Z,14.10
2017-09-24T22:12:06.812Z,14.00
2017-09-24T22:14:34.749Z,14.00
2017-09-24T22:17:02.223Z,14.00
2017-09-24T22:19:29.683Z,13.90
2017-09-24T22:21:57.127Z,14.00
2017-09-24T22:24:25.370Z,13.90
2017-09-24T22:26:52.978Z,13.90
2017-09-24T22:29:20.492Z,13.90
2017-09-24T22:31:47.979Z,13.90
2017-09-24T22:34:15.438Z,13.90
2017-09-24T22:36:42.902Z,13.80
2017-09-24T22:39:10.356Z,13.80
2017-09-24T22:41:37.818Z,13.80
2017-09-24T22:44:05.303Z,13.80
2017-09-24T22:46:32.794Z,13.80
2017-09-24T22:49:00.282Z,13.90
2017-09-24T22:51:27.791Z,13.90
2017-09-24T22:53:55.258Z,13.90
2017-09-24T22:56:22.746Z,13.90
2017-09-24T22:58:50.266Z,13.90
2017-09-24T23:01:17.736Z,14.00
2017-09-24T23:03:45.227Z,14.00
2017-09-24T23:06:12.691Z,14.00
2017-09-24T23:08:40.172Z,14.10
2017-09-24T23:11:07.647Z,14.10
2017-09-24T23:13:35.118Z,14.20
2017-09-24T23:16:02.591Z,14.10
2017-09-24T23:18:30.834Z,14.20
2017-09-24T23:20:58.319Z,14.20
2017-09-24T23:23:26.572Z,14.30
2017-09-24T23:25:54.032Z,14.30
2017-09-24T23:28:21.505Z,14.30
2017-09-24T23:30:48.962Z,14.40
2017-09-24T23:33:16.443Z,14.50
2017-09-24T23:35:43.915Z,14.50
2017-09-24T23:38:11.385Z,14.60
2017-09-24T23:40:38.847Z,14.60
2017-09-24T23:43:06.298Z,14.70
2017-09-24T23:45:33.757Z,14.60
2017-09-24T23:48:01.216Z,14.60
2017-09-24T23:50:28.664Z,14.60
2017-09-24T23:52:56.111Z,14.60
2017-09-24T23:55:23.575Z,14.70
2017-09-24T23:57:51.030Z,14.80
